createdAt,value
2019-01-24T00:00:52.776Z,44.33
2019-01-24T00:03:21.964Z,40.63
2019-01-24T00:05:51.085Z,47.57
2019-01-24T00:08:20.232Z,40.37
2019-01-24T00:10:49.394Z,39.70
2019-01-24T00:13:18.599Z,40.17
2019-01-24T00:15:47.806Z,42.60
2019-01-24T00:18:16.927Z,38.80
2019-01-24T00:20:46.158Z,51.00
2019-01-24T00:23:15.303Z,49.00
2019-01-24T00:25:45.372Z,44.57
2019-01-24T00:28:14.631Z,43.27
2019-01-24T00:30:43.788Z,43.40
2019-01-24T00:33:12.968Z,39.63
2019-01-24T00:35:42.186Z,47.30
2019-01-24T00:38:11.455Z,45.20
2019-01-24T00:40:40.565Z,49.40
2019-01-24T00:43:09.800Z,49.37
2019-01-24T00:45:38.922Z,45.63
2019-01-24T00:48:08.077Z,42.67
2019-01-24T00:50:37.188Z,43.33
2019-01-24T00:53:06.331Z,46.73
2019-01-24T00:55:35.458Z,44.27
2019-01-24T00:58:04.592Z,47.30
2019-01-24T01:00:33.760Z,42.87
2019-01-24T01:03:02.975Z,43.77
2019-01-24T01:05:32.184Z,48.97
2019-01-24T01:08:01.422Z,44.90
2019-01-24T01:10:30.642Z,40.63
2019-01-24T01:12:59.846Z,38.63
2019-01-24T01:15:28.979Z,44.57
2019-01-24T01:17:58.150Z,44.37
2019-01-24T01:20:27.291Z,38.87
2019-01-24T01:22:56.455Z,43.90
2019-01-24T01:25:25.566Z,43.13
2019-01-24T01:27:54.711Z,40.73
2019-01-24T01:30:24.797Z,39.13
2019-01-24T01:32:54.521Z,38.23
2019-01-24T01:35:23.676Z,44.27
2019-01-24T01:37:52.828Z,35.67
2019-01-24T01:40:21.963Z,38.60
2019-01-24T01:42:51.205Z,44.87
2019-01-24T01:45:21.824Z,35.10
2019-01-24T01:47:51.027Z,39.90
2019-01-24T01:50:25.027Z,45.23
2019-01-24T01:52:54.208Z,40.97
2019-01-24T01:55:23.499Z,42.30
2019-01-24T01:57:52.619Z,39.37
2019-01-24T02:00:23.470Z,40.83
2019-01-24T02:02:52.649Z,40.47
2019-01-24T02:05:21.805Z,45.70
2019-01-24T02:07:51.153Z,39.60
2019-01-24T02:10:22.603Z,40.23
2019-01-24T02:12:52.171Z,35.53
2019-01-24T02:15:21.343Z,43.63
2019-01-24T02:17:50.583Z,35.20
2019-01-24T02:20:21.851Z,40.63
2019-01-24T02:22:51.426Z,39.57
2019-01-24T02:25:21.052Z,41.67
2019-01-24T02:27:50.194Z,39.20
2019-01-24T02:30:24.778Z,39.13
2019-01-24T02:32:54.200Z,38.33
2019-01-24T02:35:23.338Z,45.23
2019-01-24T02:37:52.605Z,38.23
2019-01-24T02:40:22.311Z,40.40
2019-01-24T02:42:51.508Z,45.83
2019-01-24T02:45:22.018Z,41.63
2019-01-24T02:47:51.302Z,39.87
2019-01-24T02:50:20.963Z,37.70
2019-01-24T02:52:50.142Z,38.47
2019-01-24T02:55:19.257Z,37.93
2019-01-24T02:57:48.402Z,43.03
2019-01-24T03:00:19.518Z,37.23
2019-01-24T03:02:48.847Z,45.73
2019-01-24T03:05:20.025Z,37.03
2019-01-24T03:07:49.275Z,35.43
2019-01-24T03:10:18.449Z,40.90
2019-01-24T03:12:47.743Z,28.33
2019-01-24T03:15:18.742Z,46.70
2019-01-24T03:17:47.944Z,35.77
2019-01-24T03:20:17.415Z,38.47
2019-01-24T03:22:46.724Z,41.47
2019-01-24T03:25:16.631Z,38.03
2019-01-24T03:27:45.766Z,38.03
2019-01-24T03:30:16.929Z,33.67
2019-01-24T03:32:46.139Z,35.57
2019-01-24T03:35:17.793Z,40.70
2019-01-24T03:37:46.929Z,35.30
2019-01-24T03:40:16.380Z,35.97
2019-01-24T03:42:45.595Z,32.27
2019-01-24T03:45:15.572Z,32.43
2019-01-24T03:47:44.752Z,37.83
2019-01-24T03:50:15.961Z,36.20
2019-01-24T03:52:45.095Z,36.43
2019-01-24T03:55:15.356Z,34.07
2019-01-24T03:57:44.514Z,35.47
2019-01-24T04:00:16.504Z,36.00
2019-01-24T04:02:45.648Z,29.27
2019-01-24T04:05:15.491Z,31.00
2019-01-24T04:07:44.621Z,33.73
2019-01-24T04:10:15.792Z,36.93
2019-01-24T04:12:45.188Z,31.80
2019-01-24T04:15:19.665Z,33.93
2019-01-24T04:17:48.799Z,34.33
2019-01-24T04:20:18.081Z,32.80
2019-01-24T04:22:47.210Z,30.00
2019-01-24T04:25:16.505Z,33.27
2019-01-24T04:27:45.609Z,34.87
2019-01-24T04:30:17.144Z,33.83
2019-01-24T04:32:46.254Z,29.43
2019-01-24T04:35:19.919Z,30.20
2019-01-24T04:37:46.916Z,31.93
2019-01-24T04:40:17.015Z,29.83
2019-01-24T04:42:46.150Z,26.07
2019-01-24T04:45:16.369Z,28.13
2019-01-24T04:47:45.513Z,32.83
2019-01-24T04:50:16.442Z,32.40
2019-01-24T04:52:45.683Z,28.30
2019-01-24T04:55:16.803Z,33.30
2019-01-24T04:57:45.940Z,29.73
2019-01-24T05:00:26.487Z,31.63
2019-01-24T05:02:55.743Z,29.43
2019-01-24T05:05:27.830Z,31.40
2019-01-24T05:07:55.870Z,30.40
2019-01-24T05:10:24.996Z,27.60
2019-01-24T05:12:54.139Z,24.63
2019-01-24T05:15:23.287Z,37.17
2019-01-24T05:17:52.419Z,32.83
2019-01-24T05:20:21.598Z,27.37
2019-01-24T05:22:50.752Z,30.83
2019-01-24T05:25:19.879Z,30.37
2019-01-24T05:27:49.009Z,30.40
2019-01-24T05:30:23.603Z,30.77
2019-01-24T05:32:52.737Z,36.83
2019-01-24T05:35:21.945Z,24.73
2019-01-24T05:37:51.108Z,26.13
2019-01-24T05:40:20.232Z,36.87
2019-01-24T05:42:49.426Z,28.23
2019-01-24T05:45:18.558Z,31.90
2019-01-24T05:47:47.683Z,33.00
2019-01-24T05:50:17.031Z,37.03
2019-01-24T05:52:46.163Z,33.10
2019-01-24T05:55:15.663Z,36.63
2019-01-24T05:57:44.815Z,35.53
2019-01-24T06:00:19.939Z,32.67
2019-01-24T06:02:49.102Z,38.30
2019-01-24T06:05:18.514Z,28.20
2019-01-24T06:07:47.657Z,33.43
2019-01-24T06:10:16.806Z,27.43
2019-01-24T06:12:45.892Z,34.97
2019-01-24T06:15:15.884Z,33.13
2019-01-24T06:17:45.049Z,32.03
2019-01-24T06:20:14.891Z,29.77
2019-01-24T06:22:44.039Z,26.20
2019-01-24T06:25:13.271Z,25.83
2019-01-24T06:27:42.479Z,33.97
2019-01-24T06:30:14.760Z,31.37
2019-01-24T06:32:43.936Z,35.33
2019-01-24T06:35:13.082Z,34.93
2019-01-24T06:37:42.335Z,33.47
2019-01-24T06:40:12.677Z,34.83
2019-01-24T06:42:41.864Z,28.63
2019-01-24T06:45:16.452Z,29.67
2019-01-24T06:47:45.661Z,32.77
2019-01-24T06:50:15.714Z,36.03
2019-01-24T06:52:44.829Z,32.63
2019-01-24T06:55:16.739Z,33.53
2019-01-24T06:57:45.858Z,27.67
2019-01-24T07:00:16.531Z,38.17
2019-01-24T07:02:45.660Z,34.43
2019-01-24T07:05:14.905Z,35.83
2019-01-24T07:07:44.044Z,31.90
2019-01-24T07:10:15.453Z,30.03
2019-01-24T07:12:44.601Z,34.80
2019-01-24T07:15:16.278Z,32.90
2019-01-24T07:17:45.442Z,35.27
2019-01-24T07:20:15.130Z,30.33
2019-01-24T07:22:44.318Z,30.90
2019-01-24T07:25:19.163Z,32.87
2019-01-24T07:27:48.353Z,32.07
2019-01-24T07:30:17.820Z,31.43
2019-01-24T07:32:46.957Z,22.57
2019-01-24T07:35:16.768Z,27.87
2019-01-24T07:37:45.891Z,27.33
2019-01-24T07:40:16.376Z,26.70
2019-01-24T07:42:45.686Z,33.07
2019-01-24T07:45:17.469Z,32.20
2019-01-24T07:47:46.649Z,35.20
2019-01-24T07:50:15.800Z,29.73
2019-01-24T07:52:44.928Z,30.67
2019-01-24T07:55:14.487Z,27.27
2019-01-24T07:57:44.308Z,36.20
2019-01-24T08:00:21.827Z,28.33
2019-01-24T08:02:50.980Z,31.03
2019-01-24T08:05:20.268Z,30.50
2019-01-24T08:07:49.954Z,30.53
2019-01-24T08:10:19.882Z,28.03
2019-01-24T08:12:49.058Z,29.57
2019-01-24T08:15:19.880Z,33.90
2019-01-24T08:17:49.260Z,26.37
2019-01-24T08:20:20.412Z,33.57
2019-01-24T08:22:49.559Z,30.87
2019-01-24T08:25:18.670Z,30.83
2019-01-24T08:27:47.979Z,29.40
2019-01-24T08:30:22.606Z,26.53
2019-01-24T08:32:51.748Z,30.37
2019-01-24T08:35:20.971Z,28.23
2019-01-24T08:37:50.098Z,24.83
2019-01-24T08:40:20.042Z,28.57
2019-01-24T08:42:49.319Z,26.20
2019-01-24T08:45:18.835Z,31.50
2019-01-24T08:47:47.990Z,32.13
2019-01-24T08:50:18.652Z,27.30
2019-01-24T08:52:47.783Z,29.87
2019-01-24T08:55:19.653Z,30.80
2019-01-24T08:57:48.816Z,25.77
2019-01-24T09:00:19.104Z,28.90
2019-01-24T09:02:48.578Z,22.27
2019-01-24T09:05:17.833Z,60.83
2019-01-24T09:07:47.635Z,42.87
2019-01-24T09:10:21.830Z,31.10
2019-01-24T09:12:50.972Z,28.83
2019-01-24T09:15:20.127Z,29.60
2019-01-24T09:17:49.244Z,31.00
2019-01-24T09:20:18.867Z,33.20
2019-01-24T09:22:48.000Z,27.93
2019-01-24T09:25:17.199Z,27.50
2019-01-24T09:27:46.353Z,25.73
2019-01-24T09:30:18.065Z,22.23
2019-01-24T09:32:47.224Z,35.70
2019-01-24T09:35:16.440Z,33.60
2019-01-24T09:37:45.555Z,33.63
2019-01-24T09:40:15.588Z,39.27
2019-01-24T09:42:44.861Z,35.37
2019-01-24T09:45:19.310Z,32.93
2019-01-24T09:47:48.924Z,26.50
2019-01-24T09:50:20.555Z,30.10
2019-01-24T09:52:50.008Z,28.53
2019-01-24T09:55:19.127Z,34.20
2019-01-24T09:57:48.300Z,28.20
2019-01-24T10:00:22.542Z,29.60
2019-01-24T10:02:51.914Z,31.47
2019-01-24T10:05:21.031Z,31.77
2019-01-24T10:07:50.294Z,46.53
2019-01-24T10:10:21.197Z,43.03
2019-01-24T10:12:50.758Z,56.63
2019-01-24T10:15:20.077Z,59.70
2019-01-24T10:17:49.431Z,42.27
2019-01-24T10:20:19.894Z,29.90
2019-01-24T10:22:49.036Z,24.83
2019-01-24T10:25:20.823Z,29.77
2019-01-24T10:27:49.965Z,35.50
2019-01-24T10:30:20.509Z,22.57
2019-01-24T10:32:49.636Z,29.90
2019-01-24T10:35:18.817Z,25.43
2019-01-24T10:37:47.915Z,25.10
2019-01-24T10:40:22.464Z,24.10
2019-01-24T10:42:51.641Z,28.30
2019-01-24T10:45:21.359Z,24.03
2019-01-24T10:47:51.494Z,25.67
2019-01-24T10:50:21.963Z,22.77
2019-01-24T10:52:51.108Z,23.20
2019-01-24T10:55:22.413Z,22.90
2019-01-24T10:57:52.169Z,31.27
2019-01-24T11:00:24.297Z,29.27
2019-01-24T11:02:53.535Z,31.17
2019-01-24T11:05:22.673Z,26.47
2019-01-24T11:07:51.796Z,29.33
2019-01-24T11:10:21.096Z,28.97
2019-01-24T11:12:50.371Z,27.60
2019-01-24T11:15:21.135Z,24.47
2019-01-24T11:17:50.258Z,24.70
2019-01-24T11:20:19.832Z,28.50
2019-01-24T11:22:49.379Z,33.60
2019-01-24T11:25:20.281Z,22.30
2019-01-24T11:27:49.463Z,28.27
2019-01-24T11:30:24.566Z,26.00
2019-01-24T11:32:54.104Z,25.53
2019-01-24T11:35:26.100Z,22.00
2019-01-24T11:37:55.264Z,28.80
2019-01-24T11:40:24.682Z,25.87
2019-01-24T11:42:54.078Z,21.90
2019-01-24T11:45:25.549Z,26.03
2019-01-24T11:47:54.679Z,31.07
2019-01-24T11:50:23.910Z,26.23
2019-01-24T11:52:53.102Z,24.13
2019-01-24T11:55:22.322Z,29.60
2019-01-24T11:57:51.795Z,25.40
2019-01-24T12:00:31.734Z,24.93
2019-01-24T12:03:00.878Z,24.50
2019-01-24T12:05:30.210Z,31.10
2019-01-24T12:07:59.351Z,27.27
2019-01-24T12:10:28.498Z,29.30
2019-01-24T12:12:57.628Z,26.67
2019-01-24T12:15:27.186Z,31.63
2019-01-24T12:17:56.478Z,27.83
2019-01-24T12:20:25.840Z,32.57
2019-01-24T12:22:55.182Z,32.33
2019-01-24T12:25:24.402Z,31.90
2019-01-24T12:27:53.546Z,31.60
2019-01-24T12:30:24.954Z,28.03
2019-01-24T12:32:54.121Z,27.97
2019-01-24T12:35:23.540Z,24.17
2019-01-24T12:37:52.700Z,25.03
2019-01-24T12:40:21.992Z,31.67
2019-01-24T12:42:51.112Z,27.97
2019-01-24T12:45:22.510Z,24.20
2019-01-24T12:47:51.611Z,29.23
2019-01-24T12:50:20.784Z,23.67
2019-01-24T12:52:49.896Z,22.67
2019-01-24T12:55:19.134Z,23.53
2019-01-24T12:57:48.351Z,25.07
2019-01-24T13:00:20.426Z,25.40
2019-01-24T13:02:49.586Z,29.57
2019-01-24T13:05:18.819Z,30.17
2019-01-24T13:07:48.013Z,30.30
2019-01-24T13:10:20.071Z,26.97
2019-01-24T13:12:50.019Z,26.67
2019-01-24T13:15:20.500Z,26.00
2019-01-24T13:17:49.686Z,27.30
2019-01-24T13:20:18.978Z,28.73
2019-01-24T13:22:48.174Z,31.00
2019-01-24T13:25:19.886Z,26.27
2019-01-24T13:27:49.025Z,20.80
2019-01-24T13:30:23.433Z,23.10
2019-01-24T13:32:52.564Z,33.57
2019-01-24T13:35:21.870Z,31.17
2019-01-24T13:37:51.061Z,23.60
2019-01-24T13:40:22.251Z,22.80
2019-01-24T13:42:51.399Z,25.07
2019-01-24T13:45:25.878Z,24.93
2019-01-24T13:47:55.192Z,25.90
2019-01-24T13:50:24.320Z,21.80
2019-01-24T13:52:53.880Z,21.83
2019-01-24T13:55:23.010Z,20.60
2019-01-24T13:57:52.173Z,20.57
2019-01-24T14:00:23.577Z,24.23
2019-01-24T14:02:59.231Z,23.30
2019-01-24T14:05:28.456Z,24.17
2019-01-24T14:07:57.694Z,27.57
2019-01-24T14:10:26.967Z,24.80
2019-01-24T14:12:56.115Z,26.83
2019-01-24T14:15:25.393Z,24.17
2019-01-24T14:17:54.636Z,27.20
2019-01-24T14:20:23.846Z,29.37
2019-01-24T14:22:53.076Z,30.87
2019-01-24T14:25:22.388Z,31.90
2019-01-24T14:27:51.583Z,23.57
2019-01-24T14:30:22.667Z,22.20
2019-01-24T14:32:52.135Z,27.97
2019-01-24T14:35:21.613Z,30.07
2019-01-24T14:37:51.034Z,24.83
2019-01-24T14:40:20.280Z,25.23
2019-01-24T14:42:49.503Z,25.53
2019-01-24T14:45:20.855Z,26.67
2019-01-24T14:47:50.025Z,29.73
2019-01-24T14:50:21.074Z,30.13
2019-01-24T14:52:50.238Z,25.77
2019-01-24T14:55:19.389Z,31.17
2019-01-24T14:57:48.827Z,26.13
2019-01-24T15:00:30.358Z,30.63
2019-01-24T15:02:59.603Z,24.30
2019-01-24T15:05:28.897Z,32.63
2019-01-24T15:07:58.039Z,30.73
2019-01-24T15:10:27.295Z,34.03
2019-01-24T15:12:56.605Z,39.37
2019-01-24T15:15:25.856Z,36.33
2019-01-24T15:17:55.031Z,28.33
2019-01-24T15:20:24.271Z,43.53
2019-01-24T15:22:53.402Z,35.13
2019-01-24T15:25:22.523Z,29.57
2019-01-24T15:27:51.763Z,42.03
2019-01-24T15:30:22.845Z,41.37
2019-01-24T15:32:51.983Z,204.53
2019-01-24T15:35:21.146Z,104.87
2019-01-24T15:37:54.342Z,196.50
2019-01-24T15:40:26.893Z,47.60
2019-01-24T15:42:56.024Z,46.33
2019-01-24T15:45:25.307Z,60.53
2019-01-24T15:47:54.588Z,115.10
2019-01-24T15:50:23.793Z,112.10
2019-01-24T15:52:53.000Z,93.63
2019-01-24T15:55:22.193Z,158.30
2019-01-24T15:57:51.472Z,130.27
2019-01-24T16:00:22.981Z,51.87
2019-01-24T16:02:52.124Z,39.10
2019-01-24T16:05:21.275Z,29.67
2019-01-24T16:07:50.446Z,30.97
2019-01-24T16:10:20.611Z,30.20
2019-01-24T16:12:49.862Z,31.97
2019-01-24T16:15:24.274Z,87.30
2019-01-24T16:17:53.419Z,41.83
2019-01-24T16:20:23.833Z,34.63
2019-01-24T16:22:53.003Z,49.43
2019-01-24T16:25:22.763Z,43.37
2019-01-24T16:27:51.933Z,40.17
2019-01-24T16:30:23.611Z,45.43
2019-01-24T16:32:53.497Z,39.53
2019-01-24T16:35:22.857Z,53.63
2019-01-24T16:37:52.079Z,50.90
2019-01-24T16:40:22.798Z,54.43
2019-01-24T16:42:51.944Z,47.70
2019-01-24T16:45:23.038Z,53.73
2019-01-24T16:47:52.172Z,46.23
2019-01-24T16:50:22.639Z,53.97
2019-01-24T16:52:52.003Z,55.33
2019-01-24T16:55:21.572Z,55.87
2019-01-24T16:57:50.974Z,48.77
2019-01-24T17:00:29.555Z,61.10
2019-01-24T17:02:58.817Z,62.03
2019-01-24T17:05:28.001Z,55.87
2019-01-24T17:07:57.329Z,52.10
2019-01-24T17:10:26.700Z,55.37
2019-01-24T17:12:55.850Z,61.43
2019-01-24T17:15:25.002Z,54.00
2019-01-24T17:17:54.261Z,60.07
2019-01-24T17:20:25.119Z,57.10
2019-01-24T17:22:54.307Z,62.47
2019-01-24T17:25:25.048Z,57.33
2019-01-24T17:27:54.347Z,54.07
2019-01-24T17:30:25.200Z,60.77
2019-01-24T17:32:54.468Z,59.60
2019-01-24T17:35:23.659Z,55.00
2019-01-24T17:37:53.006Z,56.33
2019-01-24T17:40:27.216Z,58.77
2019-01-24T17:42:56.434Z,53.50
2019-01-24T17:45:25.800Z,60.67
2019-01-24T17:47:54.948Z,57.43
2019-01-24T17:50:24.187Z,66.40
2019-01-24T17:52:53.443Z,61.23
2019-01-24T17:55:40.277Z,58.40
2019-01-24T17:58:11.231Z,64.70
2019-01-24T18:00:45.926Z,59.30
2019-01-24T18:03:15.176Z,59.20
2019-01-24T18:05:44.448Z,65.50
2019-01-24T18:08:13.763Z,64.43
2019-01-24T18:10:42.948Z,64.57
2019-01-24T18:13:12.156Z,65.43
2019-01-24T18:15:41.290Z,59.07
2019-01-24T18:18:13.235Z,67.60
2019-01-24T18:20:42.413Z,72.20
2019-01-24T18:23:12.008Z,71.03
2019-01-24T18:25:41.203Z,65.07
2019-01-24T18:28:12.049Z,65.27
2019-01-24T18:30:41.318Z,65.17
2019-01-24T18:33:10.548Z,73.57
2019-01-24T18:35:39.724Z,70.03
2019-01-24T18:38:09.025Z,70.43
2019-01-24T18:40:38.617Z,66.87
2019-01-24T18:43:11.737Z,64.67
2019-01-24T18:45:46.828Z,67.00
2019-01-24T18:48:16.081Z,117.00
2019-01-24T18:50:46.564Z,77.53
2019-01-24T18:53:15.709Z,62.73
2019-01-24T18:55:44.961Z,215.70
2019-01-24T18:58:14.096Z,88.93
2019-01-24T19:00:45.042Z,76.10
2019-01-24T19:03:14.317Z,138.33
2019-01-24T19:05:44.252Z,82.07
2019-01-24T19:08:13.523Z,149.67
2019-01-24T19:10:42.672Z,89.40
2019-01-24T19:13:11.928Z,64.60
2019-01-24T19:15:43.160Z,66.17
2019-01-24T19:18:13.547Z,66.83
2019-01-24T19:20:42.818Z,57.50
2019-01-24T19:23:12.139Z,64.77
2019-01-24T19:25:41.583Z,62.20
2019-01-24T19:28:13.496Z,63.93
2019-01-24T19:30:42.811Z,61.50
2019-01-24T19:33:12.098Z,61.03
2019-01-24T19:35:41.266Z,58.00
2019-01-24T19:38:10.464Z,60.13
2019-01-24T19:40:39.669Z,54.83
2019-01-24T19:43:08.829Z,55.80
2019-01-24T19:45:38.004Z,46.67
2019-01-24T19:48:07.231Z,56.37
2019-01-24T19:50:36.401Z,60.23
2019-01-24T19:53:06.814Z,56.77
2019-01-24T19:55:37.769Z,57.10
2019-01-24T19:58:07.956Z,61.83
2019-01-24T20:00:37.158Z,56.57
2019-01-24T20:03:06.455Z,53.70
2019-01-24T20:05:35.646Z,54.07
2019-01-24T20:08:05.423Z,50.77
2019-01-24T20:10:34.721Z,52.30
2019-01-24T20:13:04.803Z,47.03
2019-01-24T20:15:34.068Z,54.40
2019-01-24T20:18:03.341Z,57.70
2019-01-24T20:20:32.524Z,60.50
2019-01-24T20:23:01.801Z,59.87
2019-01-24T20:25:32.221Z,59.77
2019-01-24T20:28:01.538Z,59.13
2019-01-24T20:30:32.009Z,61.30
2019-01-24T20:33:02.235Z,63.83
2019-01-24T20:35:40.277Z,61.13
2019-01-24T20:38:10.058Z,50.73
2019-01-24T20:40:39.694Z,66.60
2019-01-24T20:43:10.238Z,115.53
2019-01-24T20:45:39.819Z,69.40
2019-01-24T20:48:09.248Z,67.30
2019-01-24T20:50:38.377Z,55.70
2019-01-24T20:53:07.600Z,52.50
2019-01-24T20:55:36.755Z,59.87
2019-01-24T20:58:06.463Z,59.53
2019-01-24T21:00:35.600Z,59.40
2019-01-24T21:03:05.875Z,69.33
2019-01-24T21:05:35.063Z,59.13
2019-01-24T21:08:04.232Z,67.73
2019-01-24T21:10:33.426Z,66.00
2019-01-24T21:13:02.645Z,118.30
2019-01-24T21:15:31.807Z,110.23
2019-01-24T21:18:00.976Z,84.27
2019-01-24T21:20:30.642Z,72.57
2019-01-24T21:22:59.862Z,67.13
2019-01-24T21:25:29.095Z,101.70
2019-01-24T21:27:58.239Z,108.23
2019-01-24T21:30:29.820Z,65.60
2019-01-24T21:32:58.989Z,66.23
2019-01-24T21:35:28.197Z,61.47
2019-01-24T21:37:57.353Z,63.23
2019-01-24T21:40:26.980Z,61.23
2019-01-24T21:42:56.141Z,60.03
2019-01-24T21:45:30.393Z,73.80
2019-01-24T21:47:59.597Z,68.10
2019-01-24T21:50:29.932Z,60.70
2019-01-24T21:52:59.127Z,57.47
2019-01-24T21:55:28.471Z,56.27
2019-01-24T21:57:57.626Z,89.77
2019-01-24T22:00:28.383Z,64.00
2019-01-24T22:02:57.547Z,59.83
2019-01-24T22:05:27.236Z,64.87
2019-01-24T22:07:56.471Z,151.40
2019-01-24T22:10:27.101Z,75.97
2019-01-24T22:12:56.238Z,89.10
2019-01-24T22:15:27.938Z,118.53
2019-01-24T22:17:57.080Z,94.23
2019-01-24T22:20:26.353Z,68.57
2019-01-24T22:22:55.493Z,73.87
2019-01-24T22:25:27.044Z,92.20
2019-01-24T22:27:56.245Z,128.83
2019-01-24T22:30:34.480Z,199.03
2019-01-24T22:33:03.620Z,82.60
2019-01-24T22:35:32.779Z,195.07
2019-01-24T22:38:01.945Z,156.10
2019-01-24T22:40:31.175Z,144.13
2019-01-24T22:43:00.403Z,362.30
2019-01-24T22:45:29.649Z,94.87
2019-01-24T22:47:58.932Z,118.80
2019-01-24T22:50:28.062Z,97.67
2019-01-24T22:52:57.253Z,85.63
2019-01-24T22:55:26.394Z,77.00
2019-01-24T22:57:55.540Z,80.67
2019-01-24T23:00:47.519Z,81.97
2019-01-24T23:03:38.741Z,81.20
2019-01-24T23:06:07.876Z,77.97
2019-01-24T23:08:37.043Z,78.10
2019-01-24T23:11:06.630Z,76.90
2019-01-24T23:13:35.826Z,74.83
2019-01-24T23:16:05.959Z,74.60
2019-01-24T23:18:35.206Z,83.63
2019-01-24T23:21:04.800Z,84.17
2019-01-24T23:23:33.915Z,83.63
2019-01-24T23:26:03.061Z,80.83
2019-01-24T23:28:32.204Z,89.03
2019-01-24T23:31:01.386Z,84.33
2019-01-24T23:33:30.551Z,84.57
2019-01-24T23:35:59.721Z,89.83
2019-01-24T23:38:28.886Z,81.97
2019-01-24T23:40:58.102Z,87.90
2019-01-24T23:43:27.306Z,80.47
2019-01-24T23:45:56.490Z,85.77
2019-01-24T23:48:25.624Z,84.37
2019-01-24T23:50:54.820Z,80.63
2019-01-24T23:53:23.996Z,83.13
2019-01-24T23:55:53.193Z,84.80
2019-01-24T23:58:22.312Z,85.70
